Bautista Pino — EASK — position and weather

sailwx.info

Track history (hours):
 
Tides and Currents Weather Stations Pressure Air Temp Water Temp Dewpoint Dewpoint Depression Visibility Wind Speed Wind Dir Waves Ship Positions

Bautista Pino

Last reported at 2018-May-09 02:30 UTC. Time now 2018-May-25 22:19 UTC.
Position N 43°51' W 007°42'.
Warning: this ship's position is 16 days out of date.

Length 29 m; draft 3.5 m.

Type: Fishing. MMSI: 224181290.

Date/timePositionNaut miles runAvg speedWind from/ knotsBaromVisibWave heightAir tempDewpointWater temp
2018-May-09 02:30N 43°51' W 007°42'5 9.4
2018-May-09 02:00N 43°47' W 007°38'5 9.1
2018-May-09 01:29N 43°43' W 007°36'2 4.1
2018-May-09 01:00N 43°41' W 007°36'0 0.0
2018-May-09 00:30N 43°41' W 007°36'0 0.0
2018-May-09 00:00N 43°41' W 007°36'0 0.0
2018-May-08 23:29N 43°41' W 007°36'0 0.0
2018-May-08 23:00N 43°41' W 007°36'0 0.5
2018-May-08 22:31N 43°41' W 007°36'4 8.9
2018-May-08 22:00N 43°45' W 007°37'4 8.9
2018-May-08 21:30N 43°48' W 007°41'44 1.7
2018-May-07 19:40N 43°43' W 008°41'0 0.2
2018-May-07 19:30N 43°43' W 008°41'45 2.2
2018-May-06 23:03N 43°48' W 007°40'0 9.7
2018-May-06 23:00N 43°48' W 007°39'5 9.3
2018-May-06 22:30N 43°44' W 007°36'4 7.0
2018-May-06 22:00N 43°41' W 007°36'0 0.0
2018-May-06 21:30N 43°41' W 007°36'0 0.0
2018-May-06 21:00N 43°41' W 007°36'0 0.0
2018-May-04 23:26N 43°41' W 007°36'0 0.0
2018-May-04 23:00N 43°41' W 007°36'0 0.0
2018-May-04 22:30N 43°41' W 007°36'0 0.0
2018-May-04 21:59N 43°41' W 007°36'0 0.0
2018-May-04 21:30N 43°41' W 007°36'0 0.0
2018-May-04 21:00N 43°41' W 007°36'0 0.0
2018-May-04 20:30N 43°41' W 007°36'0 0.0
2018-May-04 20:00N 43°41' W 007°36'0 0.0
2018-May-04 19:30N 43°41' W 007°36'0 0.0
2018-May-04 19:00N 43°41' W 007°36'0 0.0
2018-May-04 18:30N 43°41' W 007°36'0 0.0
2018-May-04 18:00N 43°41' W 007°36'0 0.0
2018-May-04 17:31N 43°41' W 007°36'0 0.0
2018-May-04 17:00N 43°41' W 007°36'0 0.0
2018-May-04 16:30N 43°41' W 007°36'1 1.9
2018-May-04 16:00N 43°42' W 007°36'4 8.9
2018-May-04 15:30N 43°46' W 007°37'4 8.3
2018-May-04 15:00N 43°48' W 007°42'7 8.6
2018-May-04 14:13N 43°50' W 007°51'3 8.6
2018-May-04 13:54N 43°50' W 007°55'9 0.2
2018-May-02 21:56N 43°51' W 007°42'3 6.3
2018-May-02 21:30N 43°49' W 007°39'3 6.7
2018-May-02 21:00N 43°46' W 007°37'4 8.6
2018-May-02 20:30N 43°42' W 007°36'1 1.7
2018-May-02 20:00N 43°41' W 007°36'4 7.6
2018-May-02 19:30N 43°44' W 007°34'5 9.3
2018-May-02 19:00N 43°48' W 007°30'5 9.4
2018-May-02 18:30N 43°51' W 007°25'13 0.9
2018-May-02 03:37N 43°55' W 007°43'1 9.3
2018-May-02 03:29N 43°54' W 007°42'4 7.3
2018-May-02 02:58N 43°51' W 007°40'4 7.5
2018-May-02 02:30N 43°47' W 007°38'4 8.3
2018-May-02 02:00N 43°44' W 007°36'3 5.6
2018-May-02 01:30N 43°41' W 007°36'0 0.0
2018-May-02 01:00N 43°41' W 007°36'0 0.0
2018-May-02 00:30N 43°41' W 007°36'0 0.0
2018-May-02 00:00N 43°41' W 007°36'0 0.0
2018-May-01 23:30N 43°41' W 007°36'0 0.0
2018-May-01 23:00N 43°41' W 007°36'1 1.0
2018-May-01 22:31N 43°41' W 007°36'4 9.0
2018-May-01 22:00N 43°46' W 007°37'5 9.5
2018-May-01 21:30N 43°49' W 007°42'2 0.0
2018-Apr-29 22:22N 43°49' W 007°40'3 8.3
2018-Apr-29 22:00N 43°47' W 007°37'4 8.9
2018-Apr-29 21:30N 43°43' W 007°36'2 4.3
2018-Apr-29 21:00N 43°41' W 007°36'0 0.0
2018-Apr-29 20:30N 43°41' W 007°36'0 0.0
2018-Apr-29 20:00N 43°41' W 007°36'  
Track history (hours):
 
Tides and Currents Weather Stations Pressure Air Temp Water Temp Dewpoint Dewpoint Depression Visibility Wind Speed Wind Dir Waves Ship Positions

Bautista Pino

Last reported at 2018-May-09 02:30 UTC. Time now 2018-May-25 22:19 UTC.
Position N 43°51' W 007°42'.
Warning: this ship's position is 16 days out of date.

Length 29 m; draft 3.5 m.

Type: Fishing. MMSI: 224181290.

Date/timePositionNaut miles runAvg speedWind from/ knotsBaromVisibWave heightAir tempDewpointWater temp
2018-May-09 02:30N 43°51' W 007°42'5 9.4
2018-May-09 02:00N 43°47' W 007°38'5 9.1
2018-May-09 01:29N 43°43' W 007°36'2 4.1
2018-May-09 01:00N 43°41' W 007°36'0 0.0
2018-May-09 00:30N 43°41' W 007°36'0 0.0
2018-May-09 00:00N 43°41' W 007°36'0 0.0
2018-May-08 23:29N 43°41' W 007°36'0 0.0
2018-May-08 23:00N 43°41' W 007°36'0 0.5
2018-May-08 22:31N 43°41' W 007°36'4 8.9
2018-May-08 22:00N 43°45' W 007°37'4 8.9
2018-May-08 21:30N 43°48' W 007°41'44 1.7
2018-May-07 19:40N 43°43' W 008°41'0 0.2
2018-May-07 19:30N 43°43' W 008°41'45 2.2
2018-May-06 23:03N 43°48' W 007°40'0 9.7
2018-May-06 23:00N 43°48' W 007°39'5 9.3
2018-May-06 22:30N 43°44' W 007°36'4 7.0
2018-May-06 22:00N 43°41' W 007°36'0 0.0
2018-May-06 21:30N 43°41' W 007°36'0 0.0
2018-May-06 21:00N 43°41' W 007°36'0 0.0
2018-May-04 23:26N 43°41' W 007°36'0 0.0
2018-May-04 23:00N 43°41' W 007°36'0 0.0
2018-May-04 22:30N 43°41' W 007°36'0 0.0
2018-May-04 21:59N 43°41' W 007°36'0 0.0
2018-May-04 21:30N 43°41' W 007°36'0 0.0
2018-May-04 21:00N 43°41' W 007°36'0 0.0
2018-May-04 20:30N 43°41' W 007°36'0 0.0
2018-May-04 20:00N 43°41' W 007°36'0 0.0
2018-May-04 19:30N 43°41' W 007°36'0 0.0
2018-May-04 19:00N 43°41' W 007°36'0 0.0
2018-May-04 18:30N 43°41' W 007°36'0 0.0
2018-May-04 18:00N 43°41' W 007°36'0 0.0
2018-May-04 17:31N 43°41' W 007°36'0 0.0
2018-May-04 17:00N 43°41' W 007°36'0 0.0
2018-May-04 16:30N 43°41' W 007°36'1 1.9
2018-May-04 16:00N 43°42' W 007°36'4 8.9
2018-May-04 15:30N 43°46' W 007°37'4 8.3
2018-May-04 15:00N 43°48' W 007°42'7 8.6
2018-May-04 14:13N 43°50' W 007°51'3 8.6
2018-May-04 13:54N 43°50' W 007°55'9 0.2
2018-May-02 21:56N 43°51' W 007°42'3 6.3
2018-May-02 21:30N 43°49' W 007°39'3 6.7
2018-May-02 21:00N 43°46' W 007°37'4 8.6
2018-May-02 20:30N 43°42' W 007°36'1 1.7
2018-May-02 20:00N 43°41' W 007°36'4 7.6
2018-May-02 19:30N 43°44' W 007°34'5 9.3
2018-May-02 19:00N 43°48' W 007°30'5 9.4
2018-May-02 18:30N 43°51' W 007°25'13 0.9
2018-May-02 03:37N 43°55' W 007°43'1 9.3
2018-May-02 03:29N 43°54' W 007°42'4 7.3
2018-May-02 02:58N 43°51' W 007°40'4 7.5
2018-May-02 02:30N 43°47' W 007°38'4 8.3
2018-May-02 02:00N 43°44' W 007°36'3 5.6
2018-May-02 01:30N 43°41' W 007°36'0 0.0
2018-May-02 01:00N 43°41' W 007°36'0 0.0
2018-May-02 00:30N 43°41' W 007°36'0 0.0
2018-May-02 00:00N 43°41' W 007°36'0 0.0
2018-May-01 23:30N 43°41' W 007°36'0 0.0
2018-May-01 23:00N 43°41' W 007°36'1 1.0
2018-May-01 22:31N 43°41' W 007°36'4 9.0
2018-May-01 22:00N 43°46' W 007°37'5 9.5
2018-May-01 21:30N 43°49' W 007°42'2 0.0
2018-Apr-29 22:22N 43°49' W 007°40'3 8.3
2018-Apr-29 22:00N 43°47' W 007°37'4 8.9
2018-Apr-29 21:30N 43°43' W 007°36'2 4.3
2018-Apr-29 21:00N 43°41' W 007°36'0 0.0
2018-Apr-29 20:30N 43°41' W 007°36'0 0.0
2018-Apr-29 20:00N 43°41' W 007°36'  

Dump ship's entire track history